createdAt,value
2023-07-15T00:01:37.756Z,0.68
2023-07-15T00:04:10.669Z,0.50
2023-07-15T00:06:37.562Z,0.40
2023-07-15T00:09:05.928Z,0.50
2023-07-15T00:11:35.505Z,0.57
2023-07-15T00:14:03.398Z,0.63
2023-07-15T00:16:31.953Z,0.52
2023-07-15T00:18:59.624Z,0.50
2023-07-15T00:21:31.785Z,0.60
2023-07-15T00:24:01.561Z,0.40
2023-07-15T00:26:33.572Z,0.47
2023-07-15T00:29:04.891Z,0.30
2023-07-15T00:31:36.545Z,0.60
2023-07-15T00:34:04.204Z,0.68
2023-07-15T00:36:34.932Z,0.40
2023-07-15T00:39:02.147Z,0.52
2023-07-15T00:41:35.947Z,0.50
2023-07-15T00:44:08.181Z,0.60
2023-07-15T00:47:00.190Z,0.60
2023-07-15T00:49:30.463Z,0.47
2023-07-15T00:52:05.235Z,0.60
2023-07-15T00:54:36.541Z,0.70
2023-07-15T00:57:05.482Z,0.63
2023-07-15T00:59:33.273Z,0.60
2023-07-15T01:02:01.007Z,0.60
2023-07-15T01:04:27.952Z,0.70
2023-07-15T01:06:55.628Z,0.60
2023-07-15T01:09:25.538Z,0.70
2023-07-15T01:14:19.169Z,0.50
2023-07-15T01:16:49.014Z,0.70
2023-07-15T01:19:19.801Z,0.63
2023-07-15T01:21:52.146Z,0.60
2023-07-15T01:24:22.377Z,0.73
2023-07-15T01:26:57.695Z,0.65
2023-07-15T01:29:25.900Z,0.88
2023-07-15T01:31:52.823Z,0.70
2023-07-15T01:34:21.041Z,0.77
2023-07-15T01:36:48.682Z,0.63
2023-07-15T01:39:16.999Z,0.55
2023-07-15T01:41:45.389Z,0.70
2023-07-15T01:44:13.385Z,0.70
2023-07-15T01:46:41.074Z,0.68
2023-07-15T01:49:09.993Z,0.60
2023-07-15T01:51:37.233Z,0.68
2023-07-15T01:54:04.656Z,0.85
2023-07-15T01:56:32.013Z,0.60
2023-07-15T01:58:59.218Z,0.60
2023-07-15T02:01:27.991Z,0.70
2023-07-15T02:03:55.183Z,0.70
2023-07-15T02:06:23.073Z,0.70
2023-07-15T02:08:49.952Z,0.60
2023-07-15T02:11:16.728Z,0.63
2023-07-15T02:13:43.719Z,0.70
2023-07-15T02:16:10.767Z,0.70
2023-07-15T02:18:37.563Z,0.70
2023-07-15T02:21:05.568Z,0.90
2023-07-15T02:23:32.472Z,0.65
2023-07-15T02:25:59.237Z,0.80
2023-07-15T02:28:28.186Z,0.90
2023-07-15T02:30:56.582Z,0.80
2023-07-15T02:33:24.694Z,0.80
2023-07-15T02:35:51.961Z,0.63
2023-07-15T02:38:19.552Z,0.60
2023-07-15T02:40:48.486Z,0.70
2023-07-15T02:43:15.444Z,0.60
2023-07-15T02:45:42.275Z,0.60
2023-07-15T02:48:09.189Z,0.50
2023-07-15T02:50:36.112Z,0.60
2023-07-15T02:53:04.500Z,0.63
2023-07-15T02:55:31.833Z,0.40
2023-07-15T02:57:59.211Z,0.50
2023-07-15T03:00:26.270Z,0.57
2023-07-15T03:02:53.389Z,0.60
2023-07-15T03:05:20.824Z,0.60
2023-07-15T03:07:48.830Z,0.50
2023-07-15T03:10:20.142Z,0.50
2023-07-15T03:12:50.947Z,0.80
2023-07-15T03:15:18.584Z,0.50
2023-07-15T03:17:45.511Z,0.57
2023-07-15T03:20:21.010Z,0.50
2023-07-15T03:22:50.490Z,0.70
2023-07-15T03:25:18.635Z,0.70
2023-07-15T03:27:47.147Z,0.60
2023-07-15T03:30:14.467Z,1.00
2023-07-15T03:32:43.877Z,0.50
2023-07-15T03:35:14.969Z,0.57
2023-07-15T03:37:45.187Z,0.60
2023-07-15T03:40:13.434Z,0.77
2023-07-15T03:42:41.950Z,0.70
2023-07-15T03:45:09.768Z,0.60
2023-07-15T03:47:37.516Z,0.63
2023-07-15T03:50:08.347Z,0.60
2023-07-15T03:52:35.142Z,0.55
2023-07-15T03:55:04.352Z,0.60
2023-07-15T03:57:31.622Z,0.50
2023-07-15T03:59:58.446Z,0.60
2023-07-15T04:02:28.146Z,0.50
2023-07-15T04:04:55.131Z,0.60
2023-07-15T04:07:21.980Z,0.50
2023-07-15T04:09:48.832Z,0.70
2023-07-15T04:12:15.682Z,0.60
2023-07-15T04:14:42.730Z,0.40
2023-07-15T04:17:09.473Z,0.50
2023-07-15T04:19:36.654Z,0.47
2023-07-15T04:22:03.607Z,0.45
2023-07-15T04:24:30.508Z,0.50
2023-07-15T04:26:57.388Z,0.40
2023-07-15T04:29:24.312Z,0.40
2023-07-15T04:31:51.513Z,0.40
2023-07-15T04:34:18.497Z,0.50
2023-07-15T04:36:45.287Z,0.60
2023-07-15T04:39:12.152Z,0.57
2023-07-15T04:41:39.051Z,0.50
2023-07-15T04:44:06.035Z,0.50
2023-07-15T04:46:34.391Z,0.60
2023-07-15T04:49:01.520Z,0.60
2023-07-15T04:51:28.543Z,0.60
2023-07-15T04:53:55.562Z,0.50
2023-07-15T04:56:22.611Z,0.50
2023-07-15T04:58:49.482Z,0.52
2023-07-15T05:01:16.800Z,1.10
2023-07-15T05:03:44.062Z,0.60
2023-07-15T05:06:11.356Z,0.30
2023-07-15T05:08:38.539Z,0.70
2023-07-15T05:11:05.722Z,0.50
2023-07-15T05:13:32.675Z,0.60
2023-07-15T05:15:59.664Z,0.57
2023-07-15T05:18:26.934Z,0.50
2023-07-15T05:20:53.714Z,0.52
2023-07-15T05:23:22.034Z,0.50
2023-07-15T05:25:49.043Z,0.52
2023-07-15T05:28:15.941Z,0.50
2023-07-15T05:30:43.093Z,0.50
2023-07-15T05:33:10.563Z,0.40
2023-07-15T05:35:37.486Z,0.40
2023-07-15T05:38:04.402Z,0.50
2023-07-15T05:40:31.281Z,0.40
2023-07-15T05:42:58.178Z,0.55
2023-07-15T05:45:25.057Z,0.70
2023-07-15T05:47:52.169Z,0.80
2023-07-15T05:50:19.291Z,0.40
2023-07-15T05:52:46.303Z,0.43
2023-07-15T05:55:13.322Z,0.40
2023-07-15T05:57:40.372Z,0.52
2023-07-15T06:00:10.791Z,0.52
2023-07-15T06:02:39.900Z,0.40
2023-07-15T06:05:07.451Z,0.43
2023-07-15T06:07:34.414Z,0.40
2023-07-15T06:10:01.461Z,0.40
2023-07-15T06:12:28.324Z,0.30
2023-07-15T06:14:55.398Z,0.30
2023-07-15T06:17:23.117Z,0.40
2023-07-15T06:19:50.046Z,0.30
2023-07-15T06:22:16.765Z,0.40
2023-07-15T06:24:44.341Z,0.30
2023-07-15T06:27:11.119Z,0.32
2023-07-15T06:29:37.978Z,0.40
2023-07-15T06:32:05.685Z,0.20
2023-07-15T06:34:32.900Z,0.30
2023-07-15T06:37:00.070Z,0.30
2023-07-15T06:39:27.333Z,0.38
2023-07-15T06:41:54.262Z,0.38
2023-07-15T06:44:21.363Z,0.40
2023-07-15T06:46:48.414Z,0.38
2023-07-15T06:49:15.339Z,0.30
2023-07-15T06:51:42.359Z,0.32
2023-07-15T06:54:09.427Z,0.40
2023-07-15T06:56:36.647Z,0.30
2023-07-15T06:59:03.924Z,0.40
2023-07-15T07:01:30.886Z,0.32
2023-07-15T07:03:57.831Z,0.30
2023-07-15T07:06:24.723Z,0.30
2023-07-15T07:08:52.153Z,0.30
2023-07-15T07:11:19.210Z,0.30
2023-07-15T07:13:46.182Z,0.40
2023-07-15T07:16:13.401Z,0.40
2023-07-15T07:18:40.571Z,0.30
2023-07-15T07:21:07.769Z,0.40
2023-07-15T07:23:35.093Z,0.40
2023-07-15T07:26:02.099Z,0.30
2023-07-15T07:28:45.568Z,0.40
2023-07-15T07:31:15.100Z,0.30
2023-07-15T07:36:10.296Z,0.40
2023-07-15T07:38:37.318Z,0.32
2023-07-15T07:41:13.054Z,0.50
2023-07-15T07:43:40.868Z,0.30
2023-07-15T07:46:11.319Z,0.55
2023-07-15T07:48:38.322Z,0.63
2023-07-15T07:51:05.438Z,6.60
2023-07-15T07:53:32.376Z,0.40
2023-07-15T07:55:59.374Z,0.40
2023-07-15T07:58:26.487Z,0.32
2023-07-15T08:00:53.346Z,0.40
2023-07-15T08:03:20.579Z,0.50
2023-07-15T08:05:49.846Z,0.60
2023-07-15T08:08:17.005Z,0.40
2023-07-15T08:10:44.188Z,0.40
2023-07-15T08:13:11.461Z,0.40
2023-07-15T08:15:38.892Z,0.47
2023-07-15T08:18:07.635Z,0.50
2023-07-15T08:20:35.382Z,0.47
2023-07-15T08:23:02.678Z,0.80
2023-07-15T08:25:30.361Z,0.40
2023-07-15T08:27:57.503Z,0.60
2023-07-15T08:30:24.481Z,0.50
2023-07-15T08:32:51.673Z,0.50
2023-07-15T08:35:18.991Z,0.40
2023-07-15T08:37:46.177Z,0.50
2023-07-15T08:40:14.151Z,0.70
2023-07-15T08:42:41.842Z,0.50
2023-07-15T08:45:09.128Z,0.50
2023-07-15T08:47:37.623Z,0.55
2023-07-15T08:50:12.224Z,1.80
2023-07-15T08:52:40.406Z,0.50
2023-07-15T08:55:08.155Z,0.50
2023-07-15T08:57:35.900Z,0.40
2023-07-15T09:00:09.062Z,0.40
2023-07-15T09:02:39.111Z,0.40
2023-07-15T09:05:10.436Z,0.45
2023-07-15T09:07:51.546Z,0.40
2023-07-15T09:10:18.503Z,0.40
2023-07-15T09:12:52.992Z,0.75
2023-07-15T09:15:20.281Z,0.60
2023-07-15T09:17:55.994Z,0.50
2023-07-15T09:20:25.843Z,0.30
2023-07-15T09:22:58.426Z,0.50
2023-07-15T09:25:26.670Z,0.40
2023-07-15T09:27:54.893Z,0.60
2023-07-15T09:30:21.942Z,0.50
2023-07-15T09:32:49.068Z,0.30
2023-07-15T09:35:16.576Z,0.30
2023-07-15T09:37:47.857Z,0.40
2023-07-15T09:40:14.930Z,0.30
2023-07-15T09:42:57.603Z,0.30
2023-07-15T09:45:37.680Z,0.40
2023-07-15T09:48:10.794Z,0.45
2023-07-15T09:50:40.968Z,0.40
2023-07-15T09:53:08.910Z,0.80
2023-07-15T09:55:37.738Z,0.50
2023-07-15T09:58:09.492Z,0.32
2023-07-15T10:00:43.368Z,0.40
2023-07-15T10:03:18.704Z,0.50
2023-07-15T10:05:47.559Z,0.30
2023-07-15T10:08:15.276Z,0.30
2023-07-15T10:10:42.966Z,0.30
2023-07-15T10:13:11.766Z,0.30
2023-07-15T10:15:39.415Z,0.40
2023-07-15T10:18:14.139Z,0.40
2023-07-15T10:20:53.787Z,0.47
2023-07-15T10:23:31.098Z,0.50
2023-07-15T10:26:04.939Z,0.50
2023-07-15T10:28:38.474Z,0.45
2023-07-15T10:31:09.501Z,0.40
2023-07-15T10:34:00.896Z,0.40
2023-07-15T10:36:45.788Z,0.38
2023-07-15T10:39:17.549Z,0.63
2023-07-15T10:41:53.370Z,0.88
2023-07-15T10:44:22.404Z,0.50
2023-07-15T10:46:54.030Z,0.43
2023-07-15T10:49:22.748Z,0.40
2023-07-15T10:51:53.865Z,0.40
2023-07-15T10:54:23.302Z,0.40
2023-07-15T10:56:50.303Z,0.40
2023-07-15T10:59:17.206Z,0.40
2023-07-15T11:01:44.979Z,0.32
2023-07-15T11:04:12.054Z,0.47
2023-07-15T11:06:39.451Z,0.30
2023-07-15T11:09:16.765Z,0.73
2023-07-15T11:11:43.757Z,0.52
2023-07-15T11:14:27.431Z,0.40
2023-07-15T11:16:56.361Z,0.30
2023-07-15T11:19:24.751Z,0.70
2023-07-15T11:21:53.107Z,0.60
2023-07-15T11:24:23.061Z,0.60
2023-07-15T11:26:50.869Z,0.40
2023-07-15T11:29:22.959Z,0.40
2023-07-15T11:31:54.505Z,0.40
2023-07-15T11:34:26.027Z,0.30
2023-07-15T11:36:57.312Z,0.30
2023-07-15T11:39:25.375Z,0.40
2023-07-15T11:41:52.346Z,0.30
2023-07-15T11:44:23.955Z,0.68
2023-07-15T11:46:51.389Z,0.50
2023-07-15T11:49:22.405Z,0.50
2023-07-15T11:51:49.867Z,0.40
2023-07-15T11:54:17.643Z,0.38
2023-07-15T11:59:25.284Z,0.60
2023-07-15T12:01:52.300Z,0.50
2023-07-15T12:04:20.681Z,0.40
2023-07-15T12:06:52.329Z,0.40
2023-07-15T12:09:23.075Z,0.50
2023-07-15T12:11:50.880Z,0.50
2023-07-15T12:14:18.920Z,0.50
2023-07-15T12:16:46.483Z,0.40
2023-07-15T12:19:17.541Z,0.50
2023-07-15T12:21:44.409Z,0.40
2023-07-15T12:24:11.234Z,0.40
2023-07-15T12:26:38.085Z,0.95
2023-07-15T12:29:04.981Z,0.70
2023-07-15T12:31:31.824Z,0.40
2023-07-15T12:33:58.771Z,0.60
2023-07-15T12:36:25.569Z,0.70
2023-07-15T12:38:52.755Z,0.40
2023-07-15T12:41:19.805Z,0.40
2023-07-15T12:43:46.557Z,0.40
2023-07-15T12:46:13.845Z,0.57
2023-07-15T12:48:40.987Z,0.50
2023-07-15T12:51:07.967Z,0.43
2023-07-15T12:53:34.840Z,0.45
2023-07-15T12:56:01.661Z,0.70
2023-07-15T12:58:28.572Z,0.70
2023-07-15T13:00:57.874Z,0.40
2023-07-15T13:03:25.010Z,0.60
2023-07-15T13:05:51.952Z,0.52
2023-07-15T13:08:19.607Z,0.60
2023-07-15T13:10:46.528Z,0.50
2023-07-15T13:13:13.416Z,0.45
2023-07-15T13:15:44.844Z,0.40
2023-07-15T13:18:12.886Z,0.47
2023-07-15T13:20:40.163Z,0.50
2023-07-15T13:23:07.307Z,0.40
2023-07-15T13:25:34.313Z,0.40
2023-07-15T13:28:01.269Z,0.70
2023-07-15T13:30:28.106Z,0.50
2023-07-15T13:32:54.881Z,0.47
2023-07-15T13:35:21.792Z,0.50
2023-07-15T13:37:48.715Z,0.40
2023-07-15T13:40:15.470Z,0.40
2023-07-15T13:42:42.539Z,0.60
2023-07-15T13:45:09.779Z,0.50
2023-07-15T13:47:36.738Z,0.50
2023-07-15T13:50:04.824Z,0.55
2023-07-15T13:52:32.519Z,0.32
2023-07-15T13:54:59.374Z,0.50
2023-07-15T13:57:26.235Z,0.40
2023-07-15T13:59:53.024Z,0.70
2023-07-15T14:02:19.933Z,0.50
2023-07-15T14:04:46.892Z,0.47
2023-07-15T14:07:14.679Z,0.40
2023-07-15T14:09:41.485Z,0.50
2023-07-15T14:12:08.686Z,0.50
2023-07-15T14:14:38.163Z,0.50
2023-07-15T14:17:05.245Z,0.50
2023-07-15T14:19:31.967Z,0.40
2023-07-15T14:22:13.734Z,0.50
2023-07-15T14:24:42.644Z,0.50
2023-07-15T14:27:11.649Z,0.50
2023-07-15T14:29:39.826Z,0.50
2023-07-15T14:32:07.681Z,0.50
2023-07-15T14:34:34.671Z,0.50
2023-07-15T14:37:01.705Z,0.40
2023-07-15T14:39:28.543Z,0.40
2023-07-15T14:41:55.364Z,0.43
2023-07-15T14:44:22.174Z,0.50
2023-07-15T14:46:49.248Z,0.40
2023-07-15T14:49:16.098Z,0.60
2023-07-15T14:51:42.811Z,0.47
2023-07-15T14:54:09.609Z,0.60
2023-07-15T14:56:36.333Z,0.50
2023-07-15T14:59:03.305Z,0.55
2023-07-15T15:01:31.209Z,0.55
2023-07-15T15:03:58.451Z,2.35
2023-07-15T15:06:25.698Z,0.40
2023-07-15T15:08:52.516Z,0.50
2023-07-15T15:11:20.090Z,0.50
2023-07-15T15:13:50.646Z,0.47
2023-07-15T15:16:17.898Z,0.50
2023-07-15T15:18:46.666Z,0.50
2023-07-15T15:21:15.301Z,0.50
2023-07-15T15:23:43.074Z,0.57
2023-07-15T15:26:10.159Z,0.40
2023-07-15T15:28:41.584Z,0.50
2023-07-15T15:31:08.836Z,0.50
2023-07-15T15:33:35.935Z,0.60
2023-07-15T15:36:02.798Z,0.50
2023-07-15T15:38:30.227Z,0.50
2023-07-15T15:40:57.579Z,0.55
2023-07-15T15:43:25.520Z,0.43
2023-07-15T15:45:52.784Z,0.82
2023-07-15T15:48:19.633Z,0.57
2023-07-15T15:50:46.606Z,0.63
2023-07-15T15:53:13.514Z,0.57
2023-07-15T15:55:40.450Z,0.47
2023-07-15T15:58:07.208Z,0.50
2023-07-15T16:00:34.137Z,0.65
2023-07-15T16:03:01.018Z,0.50
2023-07-15T16:05:27.911Z,0.40
2023-07-15T16:07:55.202Z,0.50
2023-07-15T16:10:22.190Z,1.60
2023-07-15T16:12:51.399Z,0.50
2023-07-15T16:15:18.488Z,0.50
2023-07-15T16:17:45.391Z,0.43
2023-07-15T16:20:12.425Z,0.40
2023-07-15T16:22:39.325Z,0.60
2023-07-15T16:25:06.644Z,0.60
2023-07-15T16:27:34.012Z,0.45
2023-07-15T16:30:01.002Z,0.30
2023-07-15T16:32:27.926Z,0.50
2023-07-15T16:34:54.761Z,0.55
2023-07-15T16:37:24.236Z,0.60
2023-07-15T16:39:51.517Z,0.60
2023-07-15T16:42:18.212Z,0.68
2023-07-15T16:44:46.253Z,0.60
2023-07-15T16:47:13.305Z,0.52
2023-07-15T16:49:42.108Z,0.50
2023-07-15T16:52:09.285Z,0.50
2023-07-15T16:54:36.267Z,0.60
2023-07-15T16:57:03.192Z,0.60
2023-07-15T16:59:30.049Z,0.55
2023-07-15T17:01:56.962Z,0.50
2023-07-15T17:04:25.126Z,0.60
2023-07-15T17:06:51.967Z,0.50
2023-07-15T17:09:19.353Z,0.50
2023-07-15T17:11:46.224Z,1.42
2023-07-15T17:14:13.024Z,0.93
2023-07-15T17:16:40.034Z,0.60
2023-07-15T17:19:06.957Z,1.25
2023-07-15T17:21:34.570Z,2.53
2023-07-15T17:24:01.722Z,2.17
2023-07-15T17:26:28.525Z,0.60
2023-07-15T17:28:55.411Z,0.57
2023-07-15T17:31:22.350Z,0.60
2023-07-15T17:33:49.190Z,0.60
2023-07-15T17:36:16.259Z,0.50
2023-07-15T17:38:43.275Z,0.50
2023-07-15T17:41:10.160Z,0.40
2023-07-15T17:43:37.065Z,0.60
2023-07-15T17:46:04.129Z,0.73
2023-07-15T17:48:30.889Z,0.50
2023-07-15T17:50:57.855Z,0.50
2023-07-15T17:53:24.738Z,0.70
2023-07-15T17:55:52.768Z,0.60
2023-07-15T17:58:19.874Z,0.70
2023-07-15T18:00:47.258Z,0.57
2023-07-15T18:03:14.480Z,1.90
2023-07-15T18:05:41.429Z,2.00
2023-07-15T18:08:08.840Z,1.10
2023-07-15T18:10:36.405Z,1.55
2023-07-15T18:13:03.905Z,0.40
2023-07-15T18:15:30.840Z,0.88
2023-07-15T18:17:59.478Z,0.50
2023-07-15T18:20:26.671Z,0.93
2023-07-15T18:22:53.708Z,0.60
2023-07-15T18:25:22.018Z,0.50
2023-07-15T18:27:49.081Z,0.50
2023-07-15T18:30:16.069Z,0.55
2023-07-15T18:32:43.056Z,0.55
2023-07-15T18:35:10.351Z,0.57
2023-07-15T18:37:37.172Z,0.60
2023-07-15T18:40:04.299Z,0.80
2023-07-15T18:42:31.156Z,0.60
2023-07-15T18:44:58.029Z,0.60
2023-07-15T18:47:24.876Z,0.50
2023-07-15T18:49:51.622Z,0.50
2023-07-15T18:52:18.449Z,0.50
2023-07-15T18:54:45.321Z,0.55
2023-07-15T18:57:22.308Z,0.60
2023-07-15T18:59:49.700Z,0.70
2023-07-15T19:02:16.544Z,0.80
2023-07-15T19:04:43.370Z,0.65
2023-07-15T19:07:10.347Z,0.88
2023-07-15T19:09:37.104Z,1.70
2023-07-15T19:12:04.128Z,1.30
2023-07-15T19:14:31.043Z,1.30
2023-07-15T19:16:57.878Z,1.17
2023-07-15T19:19:24.819Z,1.42
2023-07-15T19:21:51.547Z,1.20
2023-07-15T19:24:18.567Z,1.33
2023-07-15T19:26:45.381Z,1.25
2023-07-15T19:29:12.213Z,1.30
2023-07-15T19:31:39.059Z,1.40
2023-07-15T19:34:05.861Z,1.30
2023-07-15T19:36:32.713Z,1.30
2023-07-15T19:38:59.873Z,1.40
2023-07-15T19:41:27.105Z,1.25
2023-07-15T19:43:53.941Z,1.35
2023-07-15T19:46:21.136Z,1.40
2023-07-15T19:48:48.145Z,1.10
2023-07-15T19:51:16.100Z,1.95
2023-07-15T19:53:45.236Z,1.30
2023-07-15T19:56:12.160Z,1.00
2023-07-15T19:58:38.889Z,1.30
2023-07-15T20:01:05.810Z,1.30
2023-07-15T20:03:32.674Z,1.20
2023-07-15T20:05:59.426Z,1.33
2023-07-15T20:08:26.189Z,1.50
2023-07-15T20:10:53.195Z,1.20
2023-07-15T20:13:19.951Z,1.30
2023-07-15T20:15:46.774Z,1.50
2023-07-15T20:18:13.637Z,1.40
2023-07-15T20:20:40.387Z,1.50
2023-07-15T20:23:07.461Z,1.20
2023-07-15T20:25:35.637Z,1.40
2023-07-15T20:28:02.595Z,1.58
2023-07-15T20:30:29.544Z,1.85
2023-07-15T20:32:56.429Z,1.80
2023-07-15T20:35:23.290Z,1.73
2023-07-15T20:37:50.249Z,1.65
2023-07-15T20:40:17.178Z,1.83
2023-07-15T20:42:43.988Z,1.70
2023-07-15T20:45:11.100Z,1.40
2023-07-15T20:47:44.610Z,1.30
2023-07-15T20:50:12.371Z,1.33
2023-07-15T20:52:39.154Z,1.20
2023-07-15T20:55:09.272Z,1.27
2023-07-15T20:57:36.653Z,1.00
2023-07-15T21:00:04.702Z,1.70
2023-07-15T21:02:32.109Z,1.50
2023-07-15T21:04:59.537Z,1.25
2023-07-15T21:07:26.293Z,1.20
2023-07-15T21:09:53.049Z,1.20
2023-07-15T21:12:19.835Z,1.30
2023-07-15T21:14:46.724Z,1.33
2023-07-15T21:17:13.627Z,1.42
2023-07-15T21:19:40.442Z,1.65
2023-07-15T21:22:07.487Z,1.77
2023-07-15T21:24:34.223Z,2.00
2023-07-15T21:27:00.973Z,1.80
2023-07-15T21:29:27.815Z,2.03
2023-07-15T21:31:54.816Z,2.40
2023-07-15T21:34:21.657Z,1.98
2023-07-15T21:36:48.586Z,2.10
2023-07-15T21:39:16.518Z,1.95
2023-07-15T21:41:43.491Z,1.90
2023-07-15T21:44:10.262Z,2.00
2023-07-15T21:46:37.884Z,1.80
2023-07-15T21:49:04.953Z,1.85
2023-07-15T21:51:32.099Z,1.70
2023-07-15T21:53:58.862Z,1.60
2023-07-15T21:56:25.793Z,1.70
2023-07-15T21:58:54.160Z,1.80
2023-07-15T22:01:21.009Z,1.50
2023-07-15T22:03:47.984Z,1.70
2023-07-15T22:06:15.058Z,1.70
2023-07-15T22:08:42.158Z,1.60
2023-07-15T22:11:08.976Z,1.98
2023-07-15T22:13:36.496Z,1.70
2023-07-15T22:16:03.623Z,2.05
2023-07-15T22:18:40.674Z,2.00
2023-07-15T22:21:09.055Z,1.70
2023-07-15T22:23:35.884Z,1.90
2023-07-15T22:26:02.765Z,1.80
2023-07-15T22:28:29.586Z,2.10
2023-07-15T22:30:56.572Z,2.10
2023-07-15T22:33:23.374Z,1.98
2023-07-15T22:35:50.169Z,1.75
2023-07-15T22:38:17.040Z,1.70
2023-07-15T22:40:43.856Z,2.00
2023-07-15T22:43:10.769Z,1.70
2023-07-15T22:45:48.279Z,2.00
2023-07-15T22:48:20.057Z,1.98
2023-07-15T22:50:47.102Z,1.88
2023-07-15T22:53:13.861Z,1.92
2023-07-15T22:55:40.578Z,1.95
2023-07-15T22:58:07.419Z,1.98
2023-07-15T23:00:34.560Z,1.88
2023-07-15T23:03:02.592Z,1.92
2023-07-15T23:05:29.760Z,1.80
2023-07-15T23:07:56.720Z,1.85
2023-07-15T23:10:23.644Z,1.98
2023-07-15T23:12:50.409Z,1.80
2023-07-15T23:15:17.260Z,1.92
2023-07-15T23:17:44.028Z,1.77
2023-07-15T23:20:11.040Z,2.00
2023-07-15T23:22:38.796Z,2.10
2023-07-15T23:25:06.542Z,2.00
2023-07-15T23:27:33.557Z,2.08
2023-07-15T23:30:00.487Z,2.03
2023-07-15T23:32:30.115Z,1.88
2023-07-15T23:34:57.288Z,1.95
2023-07-15T23:37:24.636Z,1.90
2023-07-15T23:39:55.585Z,1.77
2023-07-15T23:42:25.436Z,1.90
2023-07-15T23:47:19.893Z,1.92
2023-07-15T23:49:50.315Z,1.75
2023-07-15T23:52:17.922Z,1.85
2023-07-15T23:54:44.901Z,2.00
2023-07-15T23:57:11.956Z,1.90
2023-07-15T23:59:39.173Z,1.73
